createdAt,value
2018-03-28T00:01:24.355Z,-1.53
2018-03-28T00:03:51.973Z,-1.51
2018-03-28T00:06:19.540Z,-1.54
2018-03-28T00:08:47.126Z,-1.50
2018-03-28T00:11:14.747Z,-1.34
2018-03-28T00:13:42.360Z,-1.26
2018-03-28T00:16:09.943Z,-1.28
2018-03-28T00:18:37.595Z,-1.16
2018-03-28T00:21:05.218Z,-1.14
2018-03-28T00:23:32.845Z,-1.14
2018-03-28T00:26:00.423Z,-1.22
2018-03-28T00:28:27.989Z,-1.22
2018-03-28T00:30:55.548Z,-1.26
2018-03-28T00:33:23.132Z,-1.28
2018-03-28T00:35:50.714Z,-1.23
2018-03-28T00:38:18.289Z,-1.20
2018-03-28T00:40:45.851Z,-1.21
2018-03-28T00:43:13.441Z,-1.23
2018-03-28T00:45:41.034Z,-1.23
2018-03-28T00:48:08.624Z,-1.19
2018-03-28T00:50:36.245Z,-1.18
2018-03-28T00:53:03.812Z,-1.24
2018-03-28T00:55:31.399Z,-1.29
2018-03-28T00:57:59.041Z,-1.35
2018-03-28T01:00:26.621Z,-1.31
2018-03-28T01:02:54.178Z,-1.23
2018-03-28T01:05:21.771Z,-1.23
2018-03-28T01:07:49.395Z,-1.25
2018-03-28T01:10:16.978Z,-1.25
2018-03-28T01:12:44.534Z,-1.31
2018-03-28T01:15:12.180Z,-1.36
2018-03-28T01:17:39.787Z,-1.32
2018-03-28T01:20:07.345Z,-1.31
2018-03-28T01:22:34.960Z,-1.32
2018-03-28T01:25:02.524Z,-1.38
2018-03-28T01:27:30.103Z,-1.39
2018-03-28T01:29:57.684Z,-1.42
2018-03-28T01:32:25.246Z,-1.49
2018-03-28T01:34:52.857Z,-1.55
2018-03-28T01:37:20.411Z,-1.58
2018-03-28T01:39:48.019Z,-1.61
2018-03-28T01:42:15.591Z,-1.66
2018-03-28T01:44:43.163Z,-1.70
2018-03-28T01:47:10.764Z,-1.67
2018-03-28T01:49:38.360Z,-1.63
2018-03-28T01:52:05.989Z,-1.60
2018-03-28T01:54:33.614Z,-1.56
2018-03-28T01:57:01.195Z,-1.54
2018-03-28T01:59:28.760Z,-1.52
2018-03-28T02:01:56.342Z,-1.52
2018-03-28T02:04:23.899Z,-1.53
2018-03-28T02:06:51.470Z,-1.49
2018-03-28T02:09:19.034Z,-1.49
2018-03-28T02:11:46.605Z,-1.45
2018-03-28T02:14:14.214Z,-1.44
2018-03-28T02:16:41.790Z,-1.45
2018-03-28T02:19:09.381Z,-1.39
2018-03-28T02:21:36.992Z,-1.36
2018-03-28T02:24:04.582Z,-1.35
2018-03-28T02:26:32.159Z,-1.31
2018-03-28T02:29:01.789Z,-1.25
2018-03-28T02:31:29.399Z,-1.18
2018-03-28T02:33:56.977Z,-1.18
2018-03-28T02:36:24.579Z,-1.11
2018-03-28T02:38:52.162Z,-1.10
2018-03-28T02:41:19.736Z,-1.11
2018-03-28T02:43:47.320Z,-1.12
2018-03-28T02:46:15.124Z,-1.17
2018-03-28T02:48:42.741Z,-1.18
2018-03-28T02:51:10.369Z,-1.20
2018-03-28T02:53:39.065Z,-1.23
2018-03-28T02:56:06.734Z,-1.23
2018-03-28T02:58:34.921Z,-1.23
2018-03-28T03:01:02.463Z,-1.23
2018-03-28T03:03:30.380Z,-1.22
2018-03-28T03:05:57.971Z,-1.17
2018-03-28T03:08:25.572Z,-1.11
2018-03-28T03:10:53.128Z,-1.09
2018-03-28T03:13:20.921Z,-1.06
2018-03-28T03:15:48.551Z,-1.08
2018-03-28T03:18:16.183Z,-1.07
2018-03-28T03:20:43.788Z,-1.04
2018-03-28T03:23:11.494Z,-1.00
2018-03-28T03:25:39.198Z,-1.00
2018-03-28T03:28:06.792Z,-0.98
2018-03-28T03:30:34.392Z,-0.98
2018-03-28T03:33:01.984Z,-0.99
2018-03-28T03:35:29.548Z,-0.92
2018-03-28T03:37:57.109Z,-0.79
2018-03-28T03:40:24.705Z,-0.84
2018-03-28T03:42:52.291Z,-0.92
2018-03-28T03:45:19.895Z,-0.90
2018-03-28T03:47:47.476Z,-0.92
2018-03-28T03:50:15.066Z,-0.92
2018-03-28T03:52:42.641Z,-0.90
2018-03-28T03:55:11.147Z,-0.90
2018-03-28T03:57:38.815Z,-0.91
2018-03-28T04:00:06.480Z,-1.10
2018-03-28T04:02:34.073Z,-0.88
2018-03-28T04:05:01.683Z,-0.81
2018-03-28T04:07:29.261Z,-0.75
2018-03-28T04:09:56.826Z,-0.70
2018-03-28T04:12:25.016Z,-0.70
2018-03-28T04:14:52.618Z,-0.67
2018-03-28T04:17:20.223Z,-0.63
2018-03-28T04:19:47.835Z,-0.60
2018-03-28T04:22:15.642Z,-0.62
2018-03-28T04:24:43.209Z,-0.64
2018-03-28T04:27:12.360Z,-0.64
2018-03-28T04:29:40.013Z,-0.67
2018-03-28T04:32:07.601Z,-0.70
2018-03-28T04:34:37.910Z,-0.70
2018-03-28T04:37:05.970Z,-0.63
2018-03-28T04:39:33.758Z,-0.65
2018-03-28T04:42:01.344Z,-0.63
2018-03-28T04:44:28.961Z,-0.54
2018-03-28T04:46:56.552Z,-0.45
2018-03-28T04:49:24.402Z,-0.46
2018-03-28T04:51:52.155Z,-0.39
2018-03-28T04:54:19.850Z,-0.38
2018-03-28T04:56:47.441Z,-0.36
2018-03-28T04:59:15.146Z,-0.40
2018-03-28T05:01:42.745Z,-0.36
2018-03-28T05:04:10.454Z,-0.36
2018-03-28T05:06:38.026Z,-0.31
2018-03-28T05:09:07.638Z,-0.30
2018-03-28T05:11:35.189Z,-0.25
2018-03-28T05:14:02.785Z,-0.25
2018-03-28T05:16:30.406Z,-0.26
2018-03-28T05:18:57.949Z,-0.24
2018-03-28T05:21:25.535Z,-0.21
2018-03-28T05:23:53.139Z,-0.16
2018-03-28T05:26:20.749Z,-0.04
2018-03-28T05:28:48.356Z,0.00
2018-03-28T05:31:15.943Z,0.13
2018-03-28T05:33:43.509Z,0.20
2018-03-28T05:36:11.265Z,0.18
2018-03-28T05:38:38.849Z,0.17
2018-03-28T05:41:06.863Z,0.22
2018-03-28T05:43:34.426Z,0.18
2018-03-28T05:46:02.065Z,0.05
2018-03-28T05:48:29.638Z,0.05
2018-03-28T05:50:57.192Z,0.13
2018-03-28T05:53:25.189Z,0.19
2018-03-28T05:55:52.864Z,0.30
2018-03-28T05:58:21.562Z,0.54
2018-03-28T06:00:49.299Z,0.85
2018-03-28T06:03:17.060Z,1.02
2018-03-28T06:05:44.748Z,0.97
2018-03-28T06:08:14.338Z,0.78
2018-03-28T06:10:41.998Z,0.78
2018-03-28T06:13:10.389Z,0.88
2018-03-28T06:15:38.374Z,1.04
2018-03-28T06:18:08.639Z,1.17
2018-03-28T06:20:39.920Z,1.13
2018-03-28T06:23:09.287Z,1.04
2018-03-28T06:25:36.926Z,1.02
2018-03-28T06:28:06.926Z,1.03
2018-03-28T06:30:34.814Z,1.13
2018-03-28T06:33:02.411Z,1.60
2018-03-28T06:35:30.015Z,2.00
2018-03-28T06:37:57.573Z,2.12
2018-03-28T06:40:25.286Z,2.20
2018-03-28T06:42:52.881Z,2.36
2018-03-28T06:45:20.967Z,2.41
2018-03-28T06:47:48.528Z,2.53
2018-03-28T06:50:18.449Z,2.80
2018-03-28T06:52:46.172Z,2.72
2018-03-28T06:55:14.957Z,2.65
2018-03-28T06:57:42.778Z,2.58
2018-03-28T07:00:13.154Z,2.37
2018-03-28T07:02:40.675Z,2.42
2018-03-28T07:05:08.261Z,2.55
2018-03-28T07:07:35.869Z,2.89
2018-03-28T07:10:03.722Z,2.94
2018-03-28T07:12:31.204Z,2.73
2018-03-28T07:14:58.686Z,3.11
2018-03-28T07:17:27.045Z,3.23
2018-03-28T07:19:54.654Z,3.31
2018-03-28T07:22:23.310Z,3.68
2018-03-28T07:24:50.912Z,3.87
2018-03-28T07:27:19.041Z,3.93
2018-03-28T07:29:46.692Z,4.17
2018-03-28T07:32:14.269Z,4.13
2018-03-28T07:34:41.864Z,4.07
2018-03-28T07:37:11.558Z,3.87
2018-03-28T07:39:39.102Z,3.58
2018-03-28T07:42:06.669Z,3.43
2018-03-28T07:44:34.234Z,3.51
2018-03-28T07:47:01.791Z,3.67
2018-03-28T07:49:30.119Z,3.79
2018-03-28T07:51:57.770Z,3.77
2018-03-28T07:54:25.849Z,3.89
2018-03-28T07:56:53.423Z,3.92
2018-03-28T08:02:12.591Z,3.53
2018-03-28T08:04:40.165Z,3.62
2018-03-28T08:07:09.605Z,3.72
2018-03-28T08:09:37.232Z,3.71
2018-03-28T08:12:04.786Z,3.46
2018-03-28T08:14:32.369Z,3.36
2018-03-28T08:16:59.929Z,3.38
2018-03-28T08:19:27.518Z,3.32
2018-03-28T08:21:55.141Z,3.30
2018-03-28T08:24:25.661Z,3.25
2018-03-28T08:26:53.253Z,3.21
2018-03-28T08:29:21.089Z,3.12
2018-03-28T08:31:48.720Z,3.05
2018-03-28T08:34:16.514Z,3.07
2018-03-28T08:36:44.072Z,3.19
2018-03-28T08:39:12.348Z,3.26
2018-03-28T08:41:39.912Z,3.33
2018-03-28T08:44:07.683Z,3.21
2018-03-28T08:46:35.344Z,3.21
2018-03-28T08:49:02.958Z,3.37
2018-03-28T08:51:30.510Z,3.37
2018-03-28T08:53:58.092Z,3.12
2018-03-28T08:56:26.065Z,3.01
2018-03-28T08:58:53.622Z,3.30
2018-03-28T09:01:21.187Z,3.41
2018-03-28T09:03:48.733Z,3.68
2018-03-28T09:06:16.345Z,3.63
2018-03-28T09:08:43.841Z,3.82
2018-03-28T09:11:12.476Z,3.68
2018-03-28T09:13:40.156Z,3.76
2018-03-28T09:16:07.727Z,3.93
2018-03-28T09:18:35.326Z,4.13
2018-03-28T09:21:02.956Z,4.15
2018-03-28T09:23:32.885Z,4.42
2018-03-28T09:26:00.883Z,4.48
2018-03-28T09:28:28.463Z,4.35
2018-03-28T09:30:56.049Z,4.15
2018-03-28T09:33:23.911Z,4.21
2018-03-28T09:35:51.538Z,4.25
2018-03-28T09:38:19.145Z,4.33
2018-03-28T09:40:46.705Z,4.58
2018-03-28T09:43:14.455Z,4.96
2018-03-28T09:45:42.107Z,4.95
2018-03-28T09:48:09.800Z,5.05
2018-03-28T09:50:37.435Z,5.01
2018-03-28T09:53:05.018Z,5.24
2018-03-28T09:55:32.767Z,5.58
2018-03-28T09:58:00.312Z,5.63
2018-03-28T10:00:27.901Z,5.24
2018-03-28T10:03:00.955Z,5.08
2018-03-28T10:05:36.479Z,4.88
2018-03-28T10:08:08.761Z,5.15
2018-03-28T10:10:39.595Z,5.22
2018-03-28T10:13:09.514Z,5.52
2018-03-28T10:15:37.065Z,5.29
2018-03-28T10:18:09.226Z,5.12
2018-03-28T10:20:39.397Z,4.99
2018-03-28T10:23:07.098Z,5.08
2018-03-28T10:25:35.006Z,5.07
2018-03-28T10:28:02.881Z,5.32
2018-03-28T10:30:30.466Z,5.28
2018-03-28T10:32:58.038Z,5.35
2018-03-28T10:35:30.442Z,5.51
2018-03-28T10:38:01.542Z,5.87
2018-03-28T10:40:29.126Z,6.12
2018-03-28T10:43:01.549Z,6.35
2018-03-28T10:45:33.712Z,6.51
2018-03-28T10:48:04.497Z,6.39
2018-03-28T10:50:38.141Z,6.12
2018-03-28T10:53:05.789Z,6.20
2018-03-28T10:55:33.530Z,6.28
2018-03-28T10:58:01.136Z,6.25
2018-03-28T11:00:28.696Z,6.24
2018-03-28T11:02:56.278Z,6.45
2018-03-28T11:05:23.931Z,6.77
2018-03-28T11:07:51.506Z,6.71
2018-03-28T11:10:19.596Z,6.87
2018-03-28T11:12:47.154Z,6.97
2018-03-28T11:15:15.212Z,6.99
2018-03-28T11:17:42.839Z,7.03
2018-03-28T11:20:10.432Z,7.11
2018-03-28T11:22:38.005Z,7.06
2018-03-28T11:25:06.108Z,6.99
2018-03-28T11:27:35.491Z,6.97
2018-03-28T11:30:03.126Z,6.83
2018-03-28T11:32:32.766Z,6.89
2018-03-28T11:35:00.342Z,7.09
2018-03-28T11:37:27.978Z,6.89
2018-03-28T11:39:55.558Z,6.85
2018-03-28T11:42:23.100Z,6.94
2018-03-28T11:44:50.666Z,7.06
2018-03-28T11:47:19.151Z,7.37
2018-03-28T11:49:47.426Z,7.64
2018-03-28T11:52:15.161Z,7.66
2018-03-28T11:54:42.772Z,7.56
2018-03-28T11:57:10.816Z,7.51
2018-03-28T11:59:38.377Z,7.54
2018-03-28T12:02:05.945Z,7.52
2018-03-28T12:07:24.132Z,7.72
2018-03-28T12:09:51.680Z,7.67
2018-03-28T12:12:19.234Z,7.57
2018-03-28T12:14:46.817Z,7.52
2018-03-28T12:17:14.775Z,7.38
2018-03-28T12:19:42.364Z,7.66
2018-03-28T12:22:09.944Z,7.65
2018-03-28T12:24:37.575Z,7.37
2018-03-28T12:27:05.308Z,7.13
2018-03-28T12:29:35.186Z,7.32
2018-03-28T12:32:02.842Z,7.47
2018-03-28T12:34:32.458Z,7.59
2018-03-28T12:37:00.101Z,7.66
2018-03-28T12:39:28.282Z,7.53
2018-03-28T12:41:55.946Z,7.62
2018-03-28T12:44:23.553Z,7.65
2018-03-28T12:46:51.511Z,7.68
2018-03-28T12:49:20.310Z,7.93
2018-03-28T12:51:48.829Z,7.68
2018-03-28T12:54:16.739Z,7.46
2018-03-28T12:56:44.537Z,7.38
2018-03-28T12:59:12.330Z,7.42
2018-03-28T13:01:40.108Z,7.49
2018-03-28T13:04:07.714Z,7.36
2018-03-28T13:06:35.438Z,7.37
2018-03-28T13:09:03.251Z,7.56
2018-03-28T13:11:32.061Z,7.72
2018-03-28T13:14:00.250Z,7.89
2018-03-28T13:16:27.795Z,7.90
2018-03-28T13:18:55.394Z,7.80
2018-03-28T13:21:25.220Z,7.70
2018-03-28T13:23:52.797Z,7.56
2018-03-28T13:26:20.364Z,7.63
2018-03-28T13:28:47.953Z,7.80
2018-03-28T13:31:21.683Z,8.04
2018-03-28T13:33:53.829Z,8.09
2018-03-28T13:36:25.205Z,8.37
2018-03-28T13:38:53.339Z,8.37
2018-03-28T13:41:20.939Z,8.40
2018-03-28T13:43:49.820Z,8.38
2018-03-28T13:46:17.451Z,8.22
2018-03-28T13:48:45.272Z,8.43
2018-03-28T13:51:13.000Z,8.73
2018-03-28T13:53:40.575Z,8.80
2018-03-28T13:56:08.457Z,9.03
2018-03-28T13:58:36.098Z,9.05
2018-03-28T14:01:03.671Z,9.10
2018-03-28T14:03:31.926Z,9.63
2018-03-28T14:06:00.313Z,9.45
2018-03-28T14:08:30.490Z,9.22
2018-03-28T14:10:58.129Z,9.51
2018-03-28T14:13:25.775Z,9.74
2018-03-28T14:15:53.342Z,9.70
2018-03-28T14:18:20.924Z,9.78
2018-03-28T14:20:48.519Z,9.76
2018-03-28T14:23:16.665Z,9.99
2018-03-28T14:25:44.924Z,9.55
2018-03-28T14:28:12.509Z,9.62
2018-03-28T14:30:40.067Z,9.49
2018-03-28T14:33:07.859Z,9.57
2018-03-28T14:35:35.530Z,9.04
2018-03-28T14:38:04.251Z,9.18
2018-03-28T14:40:31.818Z,9.31
2018-03-28T14:42:59.427Z,9.32
2018-03-28T14:45:27.712Z,9.31
2018-03-28T14:47:55.337Z,9.45
2018-03-28T14:50:23.209Z,9.94
2018-03-28T14:52:50.795Z,10.25
2018-03-28T14:55:18.640Z,10.51
2018-03-28T14:57:47.243Z,10.66
2018-03-28T15:00:14.890Z,10.67
2018-03-28T15:02:42.485Z,10.76
2018-03-28T15:05:10.654Z,10.55
2018-03-28T15:07:38.478Z,10.34
2018-03-28T15:10:06.045Z,10.07
2018-03-28T15:12:33.608Z,10.17
2018-03-28T15:15:01.201Z,10.13
2018-03-28T15:17:29.626Z,10.13
2018-03-28T15:19:57.209Z,10.16
2018-03-28T15:22:24.786Z,9.94
2018-03-28T15:24:52.360Z,9.97
2018-03-28T15:27:19.953Z,9.73
2018-03-28T15:29:47.520Z,9.62
2018-03-28T15:32:15.202Z,9.37
2018-03-28T15:34:42.848Z,9.42
2018-03-28T15:39:42.828Z,9.40
2018-03-28T15:42:10.331Z,9.40
2018-03-28T15:44:37.861Z,9.34
2018-03-28T15:47:05.409Z,9.37
2018-03-28T15:49:33.782Z,9.50
2018-03-28T15:52:01.365Z,9.47
2018-03-28T15:54:28.938Z,9.57
2018-03-28T15:56:56.530Z,9.52
2018-03-28T15:59:24.089Z,9.34
2018-03-28T16:01:51.664Z,9.15
2018-03-28T16:04:19.234Z,9.03
2018-03-28T16:06:46.890Z,8.95
2018-03-28T16:09:14.682Z,8.90
2018-03-28T16:11:42.922Z,8.85
2018-03-28T16:14:10.626Z,8.86
2018-03-28T16:16:38.203Z,8.74
2018-03-28T16:19:05.910Z,8.76
2018-03-28T16:21:33.546Z,8.81
2018-03-28T16:24:01.205Z,8.97
2018-03-28T16:26:28.786Z,9.00
2018-03-28T16:28:56.566Z,8.85
2018-03-28T16:31:24.838Z,8.73
2018-03-28T16:33:53.192Z,8.56
2018-03-28T16:36:20.992Z,8.54
2018-03-28T16:38:48.594Z,8.50
2018-03-28T16:41:16.217Z,8.45
2018-03-28T16:43:44.059Z,8.41
2018-03-28T16:46:11.804Z,8.30
2018-03-28T16:48:39.354Z,8.11
2018-03-28T16:51:07.331Z,8.09
2018-03-28T16:53:35.348Z,7.94
2018-03-28T16:56:02.929Z,7.78
2018-03-28T16:58:30.530Z,7.64
2018-03-28T17:00:58.076Z,7.55
2018-03-28T17:03:29.732Z,7.74
2018-03-28T17:05:57.359Z,7.80
2018-03-28T17:08:26.985Z,7.62
2018-03-28T17:10:54.623Z,7.48
2018-03-28T17:13:22.387Z,7.34
2018-03-28T17:15:49.996Z,7.21
2018-03-28T17:18:17.582Z,7.04
2018-03-28T17:20:46.194Z,6.92
2018-03-28T17:23:13.775Z,6.82
2018-03-28T17:25:43.018Z,6.67
2018-03-28T17:28:10.662Z,6.63
2018-03-28T17:30:38.293Z,6.64
2018-03-28T17:33:06.997Z,6.60
2018-03-28T17:35:37.352Z,6.55
2018-03-28T17:38:05.262Z,6.54
2018-03-28T17:40:34.468Z,6.53
2018-03-28T17:43:02.150Z,6.54
2018-03-28T17:48:20.732Z,6.39
2018-03-28T17:50:48.306Z,6.40
2018-03-28T17:53:15.960Z,6.41
2018-03-28T17:55:43.822Z,6.32
2018-03-28T17:58:11.387Z,6.28
2018-03-28T18:00:38.982Z,6.19
2018-03-28T18:03:07.168Z,6.09
2018-03-28T18:05:34.846Z,6.05
2018-03-28T18:08:02.410Z,6.04
2018-03-28T18:10:31.223Z,6.01
2018-03-28T18:13:00.113Z,5.99
2018-03-28T18:15:27.670Z,5.91
2018-03-28T18:17:55.237Z,5.89
2018-03-28T18:20:26.883Z,5.87
2018-03-28T18:22:54.479Z,5.82
2018-03-28T18:25:22.102Z,5.85
2018-03-28T18:27:50.612Z,5.79
2018-03-28T18:30:18.466Z,5.76
2018-03-28T18:32:46.063Z,5.76
2018-03-28T18:35:14.038Z,5.77
2018-03-28T18:37:41.622Z,5.75
2018-03-28T18:40:09.216Z,5.70
2018-03-28T18:42:36.863Z,5.71
2018-03-28T18:45:05.056Z,5.54
2018-03-28T18:47:33.499Z,5.64
2018-03-28T18:50:02.882Z,5.63
2018-03-28T18:52:30.563Z,5.65
2018-03-28T18:54:58.142Z,5.63
2018-03-28T18:57:26.073Z,5.60
2018-03-28T18:59:53.656Z,5.56
2018-03-28T19:02:21.247Z,5.55
2018-03-28T19:04:48.818Z,5.51
2018-03-28T19:07:16.599Z,5.48
2018-03-28T19:09:44.181Z,5.41
2018-03-28T19:12:11.864Z,5.34
2018-03-28T19:14:39.414Z,5.32
2018-03-28T19:17:07.181Z,5.31
2018-03-28T19:19:34.945Z,5.28
2018-03-28T19:22:02.573Z,5.25
2018-03-28T19:24:30.168Z,5.21
2018-03-28T19:26:57.808Z,5.17
2018-03-28T19:29:26.745Z,5.17
2018-03-28T19:31:54.409Z,5.12
2018-03-28T19:34:22.244Z,5.17
2018-03-28T19:36:49.903Z,5.19
2018-03-28T19:39:17.963Z,5.17
2018-03-28T19:41:45.647Z,5.15
2018-03-28T19:44:13.388Z,5.10
2018-03-28T19:46:41.260Z,5.13
2018-03-28T19:49:09.302Z,5.04
2018-03-28T19:51:37.112Z,4.97
2018-03-28T19:54:04.769Z,4.97
2018-03-28T19:56:32.604Z,4.86
2018-03-28T19:59:00.197Z,4.89
2018-03-28T20:01:30.916Z,4.92
2018-03-28T20:03:59.939Z,4.92
2018-03-28T20:09:18.564Z,4.81
2018-03-28T20:11:46.286Z,4.74
2018-03-28T20:14:14.184Z,4.74
2018-03-28T20:16:41.780Z,4.77
2018-03-28T20:19:10.055Z,4.73
2018-03-28T20:21:37.884Z,4.72
2018-03-28T20:24:05.472Z,4.72
2018-03-28T20:26:33.056Z,4.76
2018-03-28T20:29:00.680Z,4.82
2018-03-28T20:31:29.967Z,4.89
2018-03-28T20:33:57.548Z,4.88
2018-03-28T20:36:25.650Z,4.81
2018-03-28T20:38:53.275Z,4.83
2018-03-28T20:41:21.465Z,4.92
2018-03-28T20:43:49.083Z,4.96
2018-03-28T20:46:17.165Z,4.96
2018-03-28T20:48:46.220Z,4.93
2018-03-28T20:51:14.757Z,4.94
2018-03-28T20:53:42.393Z,4.99
2018-03-28T20:56:10.448Z,4.98
2018-03-28T20:58:39.091Z,4.98
2018-03-28T21:01:06.845Z,4.97
2018-03-28T21:03:34.529Z,4.87
2018-03-28T21:06:02.342Z,4.87
2018-03-28T21:08:29.995Z,4.78
2018-03-28T21:10:57.592Z,4.71
2018-03-28T21:13:25.176Z,4.77
2018-03-28T21:15:52.827Z,4.79
2018-03-28T21:18:20.466Z,4.88
2018-03-28T21:20:48.070Z,4.92
2018-03-28T21:23:15.677Z,4.94
2018-03-28T21:25:43.269Z,4.94
2018-03-28T21:28:10.864Z,4.97
2018-03-28T21:30:38.478Z,4.94
2018-03-28T21:33:06.312Z,4.98
2018-03-28T21:35:33.968Z,4.94
2018-03-28T21:38:01.535Z,4.92
2018-03-28T21:40:29.151Z,4.86
2018-03-28T21:42:56.738Z,4.79
2018-03-28T21:45:24.390Z,4.70
2018-03-28T21:47:52.011Z,4.69
2018-03-28T21:50:19.580Z,4.68
2018-03-28T21:52:47.176Z,4.66
2018-03-28T21:55:14.801Z,4.60
2018-03-28T21:57:42.483Z,4.51
2018-03-28T22:00:10.185Z,4.41
2018-03-28T22:02:38.140Z,4.27
2018-03-28T22:05:05.774Z,4.20
2018-03-28T22:07:33.488Z,4.16
2018-03-28T22:10:01.601Z,4.19
2018-03-28T22:12:31.290Z,4.19
2018-03-28T22:14:58.879Z,4.21
2018-03-28T22:17:28.559Z,4.24
2018-03-28T22:20:03.458Z,4.23
2018-03-28T22:22:31.142Z,4.22
2018-03-28T22:25:03.054Z,4.26
2018-03-28T22:27:30.627Z,4.29
2018-03-28T22:29:58.221Z,4.42
2018-03-28T22:32:29.856Z,4.44
2018-03-28T22:34:57.584Z,4.50
2018-03-28T22:37:26.020Z,4.47
2018-03-28T22:39:53.888Z,4.57
2018-03-28T22:42:21.548Z,4.55
2018-03-28T22:44:49.184Z,4.64
2018-03-28T22:47:17.647Z,4.71
2018-03-28T22:49:45.301Z,4.66
2018-03-28T22:52:14.000Z,4.68
2018-03-28T22:54:41.669Z,4.65
2018-03-28T22:57:10.907Z,4.74
2018-03-28T22:59:38.484Z,4.90
2018-03-28T23:02:06.232Z,5.03
2018-03-28T23:04:33.940Z,5.05
2018-03-28T23:07:01.504Z,5.01
2018-03-28T23:09:29.845Z,4.90
2018-03-28T23:11:57.453Z,5.14
2018-03-28T23:14:25.019Z,5.04
2018-03-28T23:16:52.578Z,4.94
2018-03-28T23:19:20.149Z,4.81
2018-03-28T23:21:47.774Z,4.73
2018-03-28T23:24:15.328Z,4.72
2018-03-28T23:26:42.893Z,4.64
2018-03-28T23:29:10.484Z,4.52
2018-03-28T23:31:38.574Z,4.53
2018-03-28T23:37:17.586Z,4.54
2018-03-28T23:39:45.128Z,4.59
2018-03-28T23:42:12.845Z,4.56
2018-03-28T23:44:40.444Z,4.53
2018-03-28T23:47:08.594Z,4.52
2018-03-28T23:49:36.217Z,4.44
2018-03-28T23:52:03.801Z,4.52
2018-03-28T23:54:31.371Z,4.48
2018-03-28T23:56:58.939Z,4.63
2018-03-28T23:59:26.498Z,4.79
